sensor_id;sensor_type;location;lat;lon;timestamp;pressure;altitude;pressure_sealevel;temperature;humidity
56270;BME280;42176;43.240;27.880;2022-12-18T00:01:04;100814.59;;;11.40;93.64
56270;BME280;42176;43.240;27.880;2022-12-18T00:03:34;100807.47;;;11.42;93.51
56270;BME280;42176;43.240;27.880;2022-12-18T00:05:59;100806.66;;;11.39;93.57
56270;BME280;42176;43.240;27.880;2022-12-18T00:08:25;100818.09;;;11.42;93.55
56270;BME280;42176;43.240;27.880;2022-12-18T00:10:51;100814.75;;;11.28;93.74
56270;BME280;42176;43.240;27.880;2022-12-18T00:13:16;100818.31;;;11.27;93.56
56270;BME280;42176;43.240;27.880;2022-12-18T00:15:42;100822.75;;;11.26;92.87
56270;BME280;42176;43.240;27.880;2022-12-18T00:18:07;100831.69;;;11.21;93.18
56270;BME280;42176;43.240;27.880;2022-12-18T00:20:37;100824.59;;;11.21;92.17
56270;BME280;42176;43.240;27.880;2022-12-18T00:23:04;100829.06;;;11.18;91.86
56270;BME280;42176;43.240;27.880;2022-12-18T00:25:35;100837.13;;;11.08;91.66
56270;BME280;42176;43.240;27.880;2022-12-18T00:28:02;100837.16;;;11.07;91.95
56270;BME280;42176;43.240;27.880;2022-12-18T00:30:29;100840.06;;;10.87;92.52
56270;BME280;42176;43.240;27.880;2022-12-18T00:32:54;100847.16;;;10.85;93.52
56270;BME280;42176;43.240;27.880;2022-12-18T00:35:20;100856.88;;;10.84;92.99
56270;BME280;42176;43.240;27.880;2022-12-18T00:37:45;100863.13;;;10.78;92.92
56270;BME280;42176;43.240;27.880;2022-12-18T00:40:11;100864.09;;;10.74;93.54
56270;BME280;42176;43.240;27.880;2022-12-18T00:42:37;100860.44;;;10.81;93.08
56270;BME280;42176;43.240;27.880;2022-12-18T00:45:22;100845.59;;;10.68;93.07
56270;BME280;42176;43.240;27.880;2022-12-18T00:47:48;100848.22;;;10.68;93.11
56270;BME280;42176;43.240;27.880;2022-12-18T00:50:13;100850.81;;;10.74;93.09
56270;BME280;42176;43.240;27.880;2022-12-18T00:52:40;100859.72;;;10.70;93.21
56270;BME280;42176;43.240;27.880;2022-12-18T00:55:05;100856.16;;;10.71;93.14
56270;BME280;42176;43.240;27.880;2022-12-18T00:57:31;100854.38;;;10.73;92.88
56270;BME280;42176;43.240;27.880;2022-12-18T00:59:56;100862.31;;;10.75;92.53
56270;BME280;42176;43.240;27.880;2022-12-18T01:02:22;100875.69;;;10.61;93.36
56270;BME280;42176;43.240;27.880;2022-12-18T01:04:48;100861.50;;;10.68;92.87
56270;BME280;42176;43.240;27.880;2022-12-18T01:07:13;100859.59;;;10.79;92.16
56270;BME280;42176;43.240;27.880;2022-12-18T01:09:38;100861.38;;;10.77;92.03
56270;BME280;42176;43.240;27.880;2022-12-18T01:12:04;100861.41;;;10.76;92.00
56270;BME280;42176;43.240;27.880;2022-12-18T01:14:30;100870.38;;;10.61;92.57
56270;BME280;42176;43.240;27.880;2022-12-18T01:16:55;100873.94;;;10.60;93.14
56270;BME280;42176;43.240;27.880;2022-12-18T01:19:21;100868.72;;;10.54;92.95
56270;BME280;42176;43.240;27.880;2022-12-18T01:21:46;100878.44;;;10.55;93.53
56270;BME280;42176;43.240;27.880;2022-12-18T01:24:12;100888.97;;;10.59;93.15
56270;BME280;42176;43.240;27.880;2022-12-18T01:26:37;100888.03;;;10.65;92.56
56270;BME280;42176;43.240;27.880;2022-12-18T01:29:03;100889.75;;;10.69;92.71
56270;BME280;42176;43.240;27.880;2022-12-18T01:31:32;100887.13;;;10.68;92.65
56270;BME280;42176;43.240;27.880;2022-12-18T01:34:00;100882.72;;;10.65;92.77
56270;BME280;42176;43.240;27.880;2022-12-18T01:36:34;100881.81;;;10.69;92.40
56270;BME280;42176;43.240;27.880;2022-12-18T01:39:05;100877.38;;;10.71;92.28
56270;BME280;42176;43.240;27.880;2022-12-18T01:41:32;100882.81;;;10.57;92.06
56270;BME280;42176;43.240;27.880;2022-12-18T01:49:47;100895.13;;;10.64;91.47
56270;BME280;42176;43.240;27.880;2022-12-18T01:52:13;100887.19;;;10.61;91.08
56270;BME280;42176;43.240;27.880;2022-12-18T01:54:40;100911.81;;;10.74;90.59
56270;BME280;42176;43.240;27.880;2022-12-18T01:57:05;100919.69;;;10.80;89.39
56270;BME280;42176;43.240;27.880;2022-12-18T01:59:32;100911.84;;;10.71;89.46
56270;BME280;42176;43.240;27.880;2022-12-18T02:01:59;100895.94;;;10.70;88.99
56270;BME280;42176;43.240;27.880;2022-12-18T02:04:26;100878.47;;;10.50;89.24
56270;BME280;42176;43.240;27.880;2022-12-18T02:07:16;100900.41;;;10.63;89.37
56270;BME280;42176;43.240;27.880;2022-12-18T02:09:58;100898.63;;;10.68;89.05
56270;BME280;42176;43.240;27.880;2022-12-18T02:12:30;100896.84;;;10.67;89.27
56270;BME280;42176;43.240;27.880;2022-12-18T02:15:24;100900.41;;;10.63;88.80
56270;BME280;42176;43.240;27.880;2022-12-18T02:18:16;100911.94;;;10.60;89.17
56270;BME280;42176;43.240;27.880;2022-12-18T02:20:59;100921.78;;;10.47;88.68
56270;BME280;42176;43.240;27.880;2022-12-18T02:23:52;100916.41;;;10.57;88.75
56270;BME280;42176;43.240;27.880;2022-12-18T02:26:28;100916.47;;;10.47;87.85
56270;BME280;42176;43.240;27.880;2022-12-18T02:29:00;100913.06;;;10.30;88.91
56270;BME280;42176;43.240;27.880;2022-12-18T02:31:31;100918.31;;;10.36;88.42
56270;BME280;42176;43.240;27.880;2022-12-18T02:34:02;100931.56;;;10.41;88.12
56270;BME280;42176;43.240;27.880;2022-12-18T02:36:28;100925.38;;;10.37;88.29
56270;BME280;42176;43.240;27.880;2022-12-18T02:38:56;100941.28;;;10.40;87.98
56270;BME280;42176;43.240;27.880;2022-12-18T02:41:24;100948.34;;;10.40;87.95
56270;BME280;42176;43.240;27.880;2022-12-18T02:43:56;100941.31;;;10.31;88.01
56270;BME280;42176;43.240;27.880;2022-12-18T02:46:32;100958.97;;;10.38;87.95
56270;BME280;42176;43.240;27.880;2022-12-18T02:52:17;100983.69;;;10.37;88.04
56270;BME280;42176;43.240;27.880;2022-12-18T02:54:57;100986.34;;;10.34;87.69
56270;BME280;42176;43.240;27.880;2022-12-18T03:00:03;100976.69;;;10.27;87.86
56270;BME280;42176;43.240;27.880;2022-12-18T03:02:58;100991.66;;;10.39;87.84
56270;BME280;42176;43.240;27.880;2022-12-18T03:05:33;100987.22;;;10.36;88.41
56270;BME280;42176;43.240;27.880;2022-12-18T03:08:06;100989.91;;;10.30;89.17
56270;BME280;42176;43.240;27.880;2022-12-18T03:10:45;100988.16;;;10.27;89.71
56270;BME280;42176;43.240;27.880;2022-12-18T03:13:20;100989.00;;;10.34;89.75
56270;BME280;42176;43.240;27.880;2022-12-18T03:15:52;100982.84;;;10.33;90.12
56270;BME280;42176;43.240;27.880;2022-12-18T03:18:36;100976.66;;;10.30;91.01
56270;BME280;42176;43.240;27.880;2022-12-18T03:21:05;100968.78;;;10.20;91.85
56270;BME280;42176;43.240;27.880;2022-12-18T03:23:36;100975.00;;;10.16;92.29
56270;BME280;42176;43.240;27.880;2022-12-18T03:26:08;100960.88;;;10.14;92.38
56270;BME280;42176;43.240;27.880;2022-12-18T03:28:38;100963.50;;;10.17;92.56
56270;BME280;42176;43.240;27.880;2022-12-18T03:31:05;100966.13;;;10.20;91.55
56270;BME280;42176;43.240;27.880;2022-12-18T03:33:45;100975.94;;;10.08;90.25
56270;BME280;42176;43.240;27.880;2022-12-18T03:36:12;100963.59;;;10.05;90.04
56270;BME280;42176;43.240;27.880;2022-12-18T03:38:38;100972.34;;;10.16;89.34
56270;BME280;42176;43.240;27.880;2022-12-18T03:41:25;100966.22;;;10.11;88.01
56270;BME280;42176;43.240;27.880;2022-12-18T03:52:09;100964.50;;;9.98;86.43
56270;BME280;42176;43.240;27.880;2022-12-18T03:54:36;100966.31;;;9.96;nan
56270;BME280;42176;43.240;27.880;2022-12-18T03:57:10;100976.91;;;9.93;86.23
56270;BME280;42176;43.240;27.880;2022-12-18T03:59:38;100991.97;;;9.81;86.72
56270;BME280;42176;43.240;27.880;2022-12-18T04:02:06;100989.38;;;9.75;87.46
56270;BME280;42176;43.240;27.880;2022-12-18T04:04:34;101012.38;;;9.60;88.02
56270;BME280;42176;43.240;27.880;2022-12-18T04:07:01;101022.97;;;9.64;88.13
56270;BME280;42176;43.240;27.880;2022-12-18T04:09:27;101034.41;;;9.58;87.62
56270;BME280;42176;43.240;27.880;2022-12-18T04:11:53;101047.69;;;9.53;88.24
56270;BME280;42176;43.240;27.880;2022-12-18T04:14:18;101043.28;;;9.44;88.54
56270;BME280;42176;43.240;27.880;2022-12-18T04:16:44;101057.41;;;9.43;88.66
56270;BME280;42176;43.240;27.880;2022-12-18T04:19:09;101062.72;;;9.45;88.57
56270;BME280;42176;43.240;27.880;2022-12-18T04:21:35;101065.34;;;9.45;88.13
56270;BME280;42176;43.240;27.880;2022-12-18T04:24:00;101061.84;;;9.40;87.68
56270;BME280;42176;43.240;27.880;2022-12-18T04:26:26;101056.56;;;9.24;87.50
56270;BME280;42176;43.240;27.880;2022-12-18T04:28:51;101059.25;;;9.01;87.80
56270;BME280;42176;43.240;27.880;2022-12-18T04:31:16;101082.16;;;9.07;87.81
56270;BME280;42176;43.240;27.880;2022-12-18T04:33:42;101091.88;;;9.00;87.75
56270;BME280;42176;43.240;27.880;2022-12-18T04:36:07;101098.03;;;8.91;87.39
56270;BME280;42176;43.240;27.880;2022-12-18T04:38:33;101098.03;;;8.87;86.64
56270;BME280;42176;43.240;27.880;2022-12-18T04:40:58;101103.31;;;8.87;86.26
56270;BME280;42176;43.240;27.880;2022-12-18T04:43:24;101100.66;;;8.73;86.21
56270;BME280;42176;43.240;27.880;2022-12-18T04:45:49;101103.31;;;8.59;86.42
56270;BME280;42176;43.240;27.880;2022-12-18T04:48:15;101108.50;;;8.45;86.18
56270;BME280;42176;43.240;27.880;2022-12-18T04:50:40;101111.13;;;8.42;86.17
56270;BME280;42176;43.240;27.880;2022-12-18T04:53:05;101120.84;;;8.41;85.97
56270;BME280;42176;43.240;27.880;2022-12-18T04:55:31;101091.72;;;8.21;85.37
56270;BME280;42176;43.240;27.880;2022-12-18T04:57:56;101117.28;;;8.28;85.42
56270;BME280;42176;43.240;27.880;2022-12-18T05:00:22;101098.78;;;8.25;85.52
56270;BME280;42176;43.240;27.880;2022-12-18T05:02:48;101120.81;;;8.24;86.21
56270;BME280;42176;43.240;27.880;2022-12-18T05:05:13;101119.91;;;8.28;86.65
56270;BME280;42176;43.240;27.880;2022-12-18T05:07:39;101129.59;;;8.26;87.23
56270;BME280;42176;43.240;27.880;2022-12-18T05:10:08;101135.78;;;8.31;87.95
56270;BME280;42176;43.240;27.880;2022-12-18T05:12:33;101139.28;;;8.30;88.33
56270;BME280;42176;43.240;27.880;2022-12-18T05:14:59;101163.91;;;8.17;88.66
56270;BME280;42176;43.240;27.880;2022-12-18T05:17:24;101170.09;;;8.17;87.37
56270;BME280;42176;43.240;27.880;2022-12-18T05:19:50;101172.69;;;8.16;86.80
56270;BME280;42176;43.240;27.880;2022-12-18T05:22:15;101178.84;;;8.10;86.95
56270;BME280;42176;43.240;27.880;2022-12-18T05:24:41;101177.06;;;8.07;86.34
56270;BME280;42176;43.240;27.880;2022-12-18T05:27:06;101181.47;;;8.12;85.92
56270;BME280;42176;43.240;27.880;2022-12-18T05:29:32;101192.03;;;8.12;85.30
56270;BME280;42176;43.240;27.880;2022-12-18T05:31:57;101195.59;;;8.17;85.34
56270;BME280;42176;43.240;27.880;2022-12-18T05:34:22;101205.22;;;8.01;85.68
56270;BME280;42176;43.240;27.880;2022-12-18T05:36:48;101210.38;;;7.88;85.72
56270;BME280;42176;43.240;27.880;2022-12-18T05:39:13;101220.13;;;7.94;86.13
56270;BME280;42176;43.240;27.880;2022-12-18T05:41:39;101228.97;;;8.02;85.75
56270;BME280;42176;43.240;27.880;2022-12-18T05:44:04;101237.78;;;8.04;85.11
56270;BME280;42176;43.240;27.880;2022-12-18T05:46:30;101234.09;;;7.81;82.96
56270;BME280;42176;43.240;27.880;2022-12-18T05:48:59;101232.31;;;7.73;83.45
56270;BME280;42176;43.240;27.880;2022-12-18T05:51:25;101244.50;;;7.59;82.91
56270;BME280;42176;43.240;27.880;2022-12-18T05:53:50;101243.56;;;7.55;82.79
56270;BME280;42176;43.240;27.880;2022-12-18T05:56:19;101224.88;;;7.26;83.50
56270;BME280;42176;43.240;27.880;2022-12-18T05:58:45;101243.31;;;7.21;84.45
56270;BME280;42176;43.240;27.880;2022-12-18T06:01:15;101263.31;;;7.02;85.26
56270;BME280;42176;43.240;27.880;2022-12-18T06:03:41;101285.25;;;6.99;85.71
56270;BME280;42176;43.240;27.880;2022-12-18T06:06:19;101279.97;;;6.99;86.38
56270;BME280;42176;43.240;27.880;2022-12-18T06:08:45;101299.25;;;6.92;86.77
56270;BME280;42176;43.240;27.880;2022-12-18T06:11:11;101312.41;;;6.91;86.84
56270;BME280;42176;43.240;27.880;2022-12-18T06:13:37;101319.34;;;6.85;87.49
56270;BME280;42176;43.240;27.880;2022-12-18T06:16:04;101319.41;;;6.89;87.06
56270;BME280;42176;43.240;27.880;2022-12-18T06:18:30;101322.13;;;6.96;87.07
56270;BME280;42176;43.240;27.880;2022-12-18T06:20:56;101343.25;;;7.01;86.78
56270;BME280;42176;43.240;27.880;2022-12-18T06:23:22;101348.53;;;7.01;86.67
56270;BME280;42176;43.240;27.880;2022-12-18T06:25:48;101370.66;;;7.12;86.71
56270;BME280;42176;43.240;27.880;2022-12-18T06:28:13;101379.31;;;7.02;86.98
56270;BME280;42176;43.240;27.880;2022-12-18T06:30:39;101386.44;;;7.09;87.05
56270;BME280;42176;43.240;27.880;2022-12-18T06:33:04;101397.13;;;7.22;85.97
56270;BME280;42176;43.240;27.880;2022-12-18T06:35:31;101385.69;;;7.20;86.01
56270;BME280;42176;43.240;27.880;2022-12-18T06:37:56;101393.72;;;7.32;85.34
56270;BME280;42176;43.240;27.880;2022-12-18T06:40:22;101399.00;;;7.29;85.94
56270;BME280;42176;43.240;27.880;2022-12-18T06:42:47;101408.78;;;7.38;85.83
56270;BME280;42176;43.240;27.880;2022-12-18T06:45:13;101416.56;;;7.27;86.00
56270;BME280;42176;43.240;27.880;2022-12-18T06:47:38;101430.59;;;7.26;86.17
56270;BME280;42176;43.240;27.880;2022-12-18T06:50:04;101442.84;;;7.21;85.96
56270;BME280;42176;43.240;27.880;2022-12-18T06:52:32;101451.56;;;7.13;86.69
56270;BME280;42176;43.240;27.880;2022-12-18T06:54:57;101447.19;;;7.19;85.76
56270;BME280;42176;43.240;27.880;2022-12-18T06:57:22;101456.88;;;7.18;85.72
56270;BME280;42176;43.240;27.880;2022-12-18T06:59:48;101449.97;;;7.28;86.13
56270;BME280;42176;43.240;27.880;2022-12-18T07:02:13;101446.47;;;7.29;85.26
56270;BME280;42176;43.240;27.880;2022-12-18T07:04:39;101453.44;;;7.22;85.38
56270;BME280;42176;43.240;27.880;2022-12-18T07:07:05;101456.06;;;7.24;85.14
56270;BME280;42176;43.240;27.880;2022-12-18T07:09:30;101459.63;;;7.27;85.55
56270;BME280;42176;43.240;27.880;2022-12-18T07:11:55;101458.91;;;7.38;85.36
56270;BME280;42176;43.240;27.880;2022-12-18T07:14:21;101476.59;;;7.50;84.87
56270;BME280;42176;43.240;27.880;2022-12-18T07:16:46;101487.34;;;7.62;84.31
56270;BME280;42176;43.240;27.880;2022-12-18T07:19:12;101491.88;;;7.75;83.65
56270;BME280;42176;43.240;27.880;2022-12-18T07:21:40;101492.88;;;7.87;83.32
56270;BME280;42176;43.240;27.880;2022-12-18T07:24:06;101491.06;;;7.83;82.33
56270;BME280;42176;43.240;27.880;2022-12-18T07:26:31;101487.19;;;7.51;83.63
56270;BME280;42176;43.240;27.880;2022-12-18T07:28:58;101489.66;;;7.37;84.92
56270;BME280;42176;43.240;27.880;2022-12-18T07:31:25;101494.59;;;7.12;85.43
56270;BME280;42176;43.240;27.880;2022-12-18T07:33:51;101494.28;;;6.91;86.67
56270;BME280;42176;43.240;27.880;2022-12-18T07:36:18;101514.47;;;6.35;89.06
56270;BME280;42176;43.240;27.880;2022-12-18T07:38:46;101504.25;;;6.03;92.58
56270;BME280;42176;43.240;27.880;2022-12-18T07:41:13;101508.09;;;6.23;92.40
56270;BME280;42176;43.240;27.880;2022-12-18T07:43:39;101501.31;;;6.35;92.46
56270;BME280;42176;43.240;27.880;2022-12-18T07:46:06;101502.97;;;6.30;89.60
56270;BME280;42176;43.240;27.880;2022-12-18T07:48:32;101515.41;;;6.40;92.30
56270;BME280;42176;43.240;27.880;2022-12-18T07:51:05;101513.41;;;6.79;91.10
56270;BME280;42176;43.240;27.880;2022-12-18T07:53:32;101511.31;;;6.56;90.01
56270;BME280;42176;43.240;27.880;2022-12-18T07:55:59;101512.16;;;6.53;90.51
56270;BME280;42176;43.240;27.880;2022-12-18T07:58:25;101517.31;;;6.47;91.71
56270;BME280;42176;43.240;27.880;2022-12-18T08:00:51;101515.53;;;6.46;91.84
56270;BME280;42176;43.240;27.880;2022-12-18T08:03:17;101520.88;;;6.51;92.07
56270;BME280;42176;43.240;27.880;2022-12-18T08:05:43;101527.97;;;6.53;92.14
56270;BME280;42176;43.240;27.880;2022-12-18T08:08:08;101538.59;;;6.60;91.37
56270;BME280;42176;43.240;27.880;2022-12-18T08:10:34;101529.97;;;6.70;90.80
56270;BME280;42176;43.240;27.880;2022-12-18T08:12:59;101541.16;;;6.57;91.14
56270;BME280;42176;43.240;27.880;2022-12-18T08:15:24;101543.94;;;6.63;91.81
56270;BME280;42176;43.240;27.880;2022-12-18T08:17:50;101550.06;;;6.62;91.43
56270;BME280;42176;43.240;27.880;2022-12-18T08:20:15;101550.06;;;6.63;90.88
56270;BME280;42176;43.240;27.880;2022-12-18T08:22:43;101549.22;;;6.64;91.45
56270;BME280;42176;43.240;27.880;2022-12-18T08:25:09;101537.97;;;6.75;90.77
56270;BME280;42176;43.240;27.880;2022-12-18T08:27:35;101539.03;;;6.84;88.75
56270;BME280;42176;43.240;27.880;2022-12-18T08:30:00;101537.88;;;6.68;89.81
56270;BME280;42176;43.240;27.880;2022-12-18T08:32:27;101532.47;;;6.61;90.80
56270;BME280;42176;43.240;27.880;2022-12-18T08:34:53;101532.53;;;6.65;90.86
56270;BME280;42176;43.240;27.880;2022-12-18T08:37:18;101535.34;;;6.76;90.65
56270;BME280;42176;43.240;27.880;2022-12-18T08:39:44;101533.63;;;6.78;90.19
56270;BME280;42176;43.240;27.880;2022-12-18T08:42:09;101548.22;;;7.13;89.17
56270;BME280;42176;43.240;27.880;2022-12-18T08:44:53;101542.13;;;7.17;87.51
56270;BME280;42176;43.240;27.880;2022-12-18T08:47:19;101530.56;;;7.07;87.71
56270;BME280;42176;43.240;27.880;2022-12-18T08:49:44;101539.09;;;6.91;89.50
56270;BME280;42176;43.240;27.880;2022-12-18T08:52:10;101543.38;;;6.82;90.18
56270;BME280;42176;43.240;27.880;2022-12-18T08:54:36;101546.94;;;6.84;90.32
56270;BME280;42176;43.240;27.880;2022-12-18T08:57:01;101547.97;;;6.96;89.75
56270;BME280;42176;43.240;27.880;2022-12-18T08:59:27;101553.31;;;7.02;88.68
56270;BME280;42176;43.240;27.880;2022-12-18T09:01:53;101558.47;;;6.93;89.08
56270;BME280;42176;43.240;27.880;2022-12-18T09:04:19;101539.97;;;6.90;90.99
56270;BME280;42176;43.240;27.880;2022-12-18T09:06:44;101539.03;;;6.84;90.98
56270;BME280;42176;43.240;27.880;2022-12-18T09:09:10;101538.25;;;6.93;90.79
56270;BME280;42176;43.240;27.880;2022-12-18T09:11:36;101530.31;;;6.92;89.77
56270;BME280;42176;43.240;27.880;2022-12-18T09:14:02;101534.69;;;6.90;89.73
56270;BME280;42176;43.240;27.880;2022-12-18T09:16:28;101533.69;;;6.81;90.55
56270;BME280;42176;43.240;27.880;2022-12-18T09:18:55;101537.25;;;6.83;91.71
56270;BME280;42176;43.240;27.880;2022-12-18T09:21:25;101523.22;;;6.88;91.89
56270;BME280;42176;43.240;27.880;2022-12-18T09:23:52;101524.75;;;7.33;89.51
56270;BME280;42176;43.240;27.880;2022-12-18T09:26:18;101520.31;;;7.29;87.81
56270;BME280;42176;43.240;27.880;2022-12-18T09:28:43;101519.91;;;7.01;88.70
56270;BME280;42176;43.240;27.880;2022-12-18T09:31:11;101523.19;;;6.84;91.42
56270;BME280;42176;43.240;27.880;2022-12-18T09:33:39;101532.09;;;6.93;91.93
56270;BME280;42176;43.240;27.880;2022-12-18T09:36:06;101529.00;;;7.20;89.59
56270;BME280;42176;43.240;27.880;2022-12-18T09:38:32;101520.97;;;7.12;88.53
56270;BME280;42176;43.240;27.880;2022-12-18T09:44:01;101531.91;;;6.80;93.26
56270;BME280;42176;43.240;27.880;2022-12-18T09:46:36;101538.19;;;6.89;92.86
56270;BME280;42176;43.240;27.880;2022-12-18T09:49:10;101537.72;;;7.14;90.21
56270;BME280;42176;43.240;27.880;2022-12-18T09:51:46;101534.22;;;7.15;89.25
56270;BME280;42176;43.240;27.880;2022-12-18T09:54:18;101535.66;;;6.95;89.93
56270;BME280;42176;43.240;27.880;2022-12-18T09:56:45;101519.78;;;6.92;90.75
56270;BME280;42176;43.240;27.880;2022-12-18T09:59:32;101525.28;;;7.07;90.32
56270;BME280;42176;43.240;27.880;2022-12-18T10:01:59;101520.22;;;7.23;89.83
56270;BME280;42176;43.240;27.880;2022-12-18T10:04:32;101522.47;;;7.58;87.23
56270;BME280;42176;43.240;27.880;2022-12-18T10:07:06;101521.56;;;7.56;86.76
56270;BME280;42176;43.240;27.880;2022-12-18T10:09:43;101511.50;;;7.27;87.85
56270;BME280;42176;43.240;27.880;2022-12-18T10:17:40;101516.50;;;7.76;85.94
56270;BME280;42176;43.240;27.880;2022-12-18T10:27:34;101512.47;;;7.34;90.18
56270;BME280;42176;43.240;27.880;2022-12-18T10:30:04;101494.09;;;7.41;87.87
56270;BME280;42176;43.240;27.880;2022-12-18T10:32:30;101496.13;;;7.61;86.29
56270;BME280;42176;43.240;27.880;2022-12-18T10:34:57;101521.31;;;7.37;86.95
56270;BME280;42176;43.240;27.880;2022-12-18T10:37:25;101505.63;;;6.83;89.49
56270;BME280;42176;43.240;27.880;2022-12-18T10:40:10;101501.94;;;6.75;91.29
56270;BME280;42176;43.240;27.880;2022-12-18T10:42:37;101517.88;;;6.81;91.67
56270;BME280;42176;43.240;27.880;2022-12-18T10:45:15;101525.41;;;7.16;90.23
56270;BME280;42176;43.240;27.880;2022-12-18T10:47:48;101525.41;;;7.16;88.53
56270;BME280;42176;43.240;27.880;2022-12-18T10:50:28;101534.72;;;6.91;90.88
56270;BME280;42176;43.240;27.880;2022-12-18T10:52:58;101531.13;;;6.86;93.06
56270;BME280;42176;43.240;27.880;2022-12-18T10:55:30;101544.94;;;7.28;92.51
56270;BME280;42176;43.240;27.880;2022-12-18T10:58:34;101536.38;;;7.44;88.24
56270;BME280;42176;43.240;27.880;2022-12-18T11:06:09;101541.69;;;7.51;90.28
56270;BME280;42176;43.240;27.880;2022-12-18T11:08:35;101544.88;;;7.92;86.25
56270;BME280;42176;43.240;27.880;2022-12-18T11:11:01;101554.31;;;7.73;86.29
56270;BME280;42176;43.240;27.880;2022-12-18T11:13:29;101564.69;;;7.58;87.96
56270;BME280;42176;43.240;27.880;2022-12-18T11:15:55;101580.31;;;7.42;89.15
56270;BME280;42176;43.240;27.880;2022-12-18T11:18:33;101583.06;;;7.52;90.29
56270;BME280;42176;43.240;27.880;2022-12-18T11:21:06;101577.38;;;7.87;86.84
56270;BME280;42176;43.240;27.880;2022-12-18T11:23:33;101573.91;;;7.91;86.52
56270;BME280;42176;43.240;27.880;2022-12-18T11:26:01;101568.44;;;7.78;87.22
56270;BME280;42176;43.240;27.880;2022-12-18T11:31:24;101571.47;;;7.39;90.36
56270;BME280;42176;43.240;27.880;2022-12-18T11:33:56;101568.03;;;7.44;90.03
56270;BME280;42176;43.240;27.880;2022-12-18T11:36:25;101583.84;;;7.44;90.15
56270;BME280;42176;43.240;27.880;2022-12-18T11:38:55;101567.22;;;7.50;89.54
56270;BME280;42176;43.240;27.880;2022-12-18T11:41:55;101574.81;;;7.27;90.28
56270;BME280;42176;43.240;27.880;2022-12-18T11:49:41;101572.53;;;7.53;91.19
56270;BME280;42176;43.240;27.880;2022-12-18T11:54:42;101569.44;;;7.21;93.34
56270;BME280;42176;43.240;27.880;2022-12-18T11:57:10;101557.66;;;6.97;95.27
56270;BME280;42176;43.240;27.880;2022-12-18T12:00:04;101581.75;;;7.22;95.16
56270;BME280;42176;43.240;27.880;2022-12-18T12:13:30;101601.47;;;7.45;91.29
56270;BME280;42176;43.240;27.880;2022-12-18T12:21:21;101605.13;;;6.97;92.58
56270;BME280;42176;43.240;27.880;2022-12-18T12:32:48;101620.56;;;7.29;90.77
56270;BME280;42176;43.240;27.880;2022-12-18T12:39:53;101635.66;;;7.41;89.57
56270;BME280;42176;43.240;27.880;2022-12-18T12:42:42;101636.53;;;7.38;89.46
56270;BME280;42176;43.240;27.880;2022-12-18T12:45:55;101641.78;;;7.38;88.44
56270;BME280;42176;43.240;27.880;2022-12-18T12:51:34;101655.94;;;6.90;87.22
56270;BME280;42176;43.240;27.880;2022-12-18T12:54:02;101664.28;;;6.64;87.76
56270;BME280;42176;43.240;27.880;2022-12-18T12:56:59;101663.00;;;6.43;88.50
56270;BME280;42176;43.240;27.880;2022-12-18T13:02:35;101663.84;;;6.90;83.10
56270;BME280;42176;43.240;27.880;2022-12-18T13:08:07;101664.28;;;6.65;83.11
56270;BME280;42176;43.240;27.880;2022-12-18T13:10:38;101659.63;;;6.50;83.93
56270;BME280;42176;43.240;27.880;2022-12-18T13:13:08;101667.78;;;6.64;83.60
56270;BME280;42176;43.240;27.880;2022-12-18T13:15:43;101673.41;;;6.83;80.96
56270;BME280;42176;43.240;27.880;2022-12-18T13:20:39;101676.06;;;6.37;81.94
56270;BME280;42176;43.240;27.880;2022-12-18T13:25:50;101678.03;;;6.49;78.66
56270;BME280;42176;43.240;27.880;2022-12-18T13:31:13;101678.22;;;6.58;74.35
56270;BME280;42176;43.240;27.880;2022-12-18T13:33:46;101694.19;;;6.66;72.14
56270;BME280;42176;43.240;27.880;2022-12-18T13:36:28;101677.38;;;6.59;71.75
56270;BME280;42176;43.240;27.880;2022-12-18T13:41:53;101699.84;;;5.62;75.75
56270;BME280;42176;43.240;27.880;2022-12-18T13:44:34;101701.75;;;5.69;76.98
56270;BME280;42176;43.240;27.880;2022-12-18T13:47:01;101693.59;;;5.95;76.97
56270;BME280;42176;43.240;27.880;2022-12-18T13:49:41;101690.63;;;6.19;74.97
56270;BME280;42176;43.240;27.880;2022-12-18T13:52:28;101707.94;;;6.51;73.20
56270;BME280;42176;43.240;27.880;2022-12-18T13:54:59;101719.06;;;6.36;72.87
56270;BME280;42176;43.240;27.880;2022-12-18T13:57:37;101717.28;;;5.95;74.41
56270;BME280;42176;43.240;27.880;2022-12-18T14:02:44;101740.88;;;5.90;75.56
56270;BME280;42176;43.240;27.880;2022-12-18T14:05:24;101735.91;;;6.03;75.74
56270;BME280;42176;43.240;27.880;2022-12-18T14:07:50;101740.72;;;6.22;74.90
56270;BME280;42176;43.240;27.880;2022-12-18T14:10:17;101739.22;;;6.35;74.68
56270;BME280;42176;43.240;27.880;2022-12-18T14:12:46;101741.22;;;6.46;74.24
56270;BME280;42176;43.240;27.880;2022-12-18T14:15:41;101751.97;;;6.57;74.29
56270;BME280;42176;43.240;27.880;2022-12-18T14:20:59;101757.53;;;6.70;74.88
56270;BME280;42176;43.240;27.880;2022-12-18T14:23:35;101759.75;;;6.50;77.02
56270;BME280;42176;43.240;27.880;2022-12-18T14:28:48;101765.78;;;6.05;82.33
56270;BME280;42176;43.240;27.880;2022-12-18T14:31:31;101781.25;;;5.92;84.20
56270;BME280;42176;43.240;27.880;2022-12-18T14:33:57;101779.84;;;6.05;84.13
56270;BME280;42176;43.240;27.880;2022-12-18T14:36:25;101796.56;;;6.47;81.65
56270;BME280;42176;43.240;27.880;2022-12-18T14:38:55;101815.59;;;6.34;81.00
56270;BME280;42176;43.240;27.880;2022-12-18T14:41:21;101801.22;;;6.19;82.22
56270;BME280;42176;43.240;27.880;2022-12-18T14:43:49;101795.81;;;6.13;83.73
56270;BME280;42176;43.240;27.880;2022-12-18T14:48:55;101790.69;;;6.59;80.60
56270;BME280;42176;43.240;27.880;2022-12-18T14:51:32;101797.50;;;6.51;80.16